createdAt,value
2018-08-18T00:00:27.111Z,52.67
2018-08-18T00:01:27.586Z,52.65
2018-08-18T00:02:28.062Z,52.63
2018-08-18T00:03:28.534Z,52.60
2018-08-18T00:04:29.013Z,52.58
2018-08-18T00:05:29.485Z,52.57
2018-08-18T00:06:29.957Z,52.56
2018-08-18T00:07:30.434Z,52.55
2018-08-18T00:08:30.904Z,52.54
2018-08-18T00:09:31.381Z,52.54
2018-08-18T00:10:31.852Z,52.53
2018-08-18T00:11:32.327Z,52.51
2018-08-18T00:12:32.801Z,52.49
2018-08-18T00:13:33.275Z,52.46
2018-08-18T00:14:33.745Z,52.42
2018-08-18T00:15:34.219Z,52.40
2018-08-18T00:16:34.697Z,52.36
2018-08-18T00:17:35.166Z,52.32
2018-08-18T00:18:35.641Z,52.28
2018-08-18T00:19:36.118Z,52.25
2018-08-18T00:20:36.585Z,52.20
2018-08-18T00:21:37.059Z,52.16
2018-08-18T00:22:37.529Z,52.12
2018-08-18T00:23:38.003Z,52.09
2018-08-18T00:24:38.476Z,52.08
2018-08-18T00:25:38.952Z,52.02
2018-08-18T00:26:39.421Z,51.98
2018-08-18T00:27:39.894Z,51.94
2018-08-18T00:28:40.366Z,51.92
2018-08-18T00:29:40.839Z,51.88
2018-08-18T00:30:41.311Z,51.86
2018-08-18T00:31:41.788Z,51.82
2018-08-18T00:32:42.255Z,51.79
2018-08-18T00:33:42.727Z,51.77
2018-08-18T00:34:43.200Z,51.74
2018-08-18T00:35:43.711Z,51.72
2018-08-18T00:36:44.167Z,51.69
2018-08-18T00:37:44.688Z,51.65
2018-08-18T00:38:45.087Z,51.62
2018-08-18T00:39:45.558Z,51.59
2018-08-18T00:40:46.031Z,51.57
2018-08-18T00:41:46.546Z,51.52
2018-08-18T00:42:46.972Z,51.50
2018-08-18T00:43:47.490Z,51.47
2018-08-18T00:44:47.917Z,51.44
2018-08-18T00:45:48.389Z,51.42
2018-08-18T00:46:48.859Z,51.47
2018-08-18T00:47:49.332Z,51.60
2018-08-18T00:48:49.804Z,51.78
2018-08-18T00:49:50.274Z,51.98
2018-08-18T00:50:50.744Z,52.17
2018-08-18T00:51:51.216Z,52.41
2018-08-18T00:52:51.687Z,52.62
2018-08-18T00:53:52.160Z,52.76
2018-08-18T00:54:52.629Z,52.95
2018-08-18T00:55:53.101Z,53.04
2018-08-18T00:56:53.571Z,53.12
2018-08-18T00:57:54.044Z,53.25
2018-08-18T00:58:54.516Z,53.28
2018-08-18T00:59:54.985Z,53.33
2018-08-18T01:00:55.458Z,53.34
2018-08-18T01:01:55.930Z,53.34
2018-08-18T01:02:56.402Z,53.31
2018-08-18T01:03:56.872Z,53.30
2018-08-18T01:04:57.348Z,53.30
2018-08-18T01:05:57.819Z,53.25
2018-08-18T01:06:58.288Z,53.21
2018-08-18T01:07:58.763Z,53.18
2018-08-18T01:08:59.239Z,53.16
2018-08-18T01:09:59.709Z,53.10
2018-08-18T01:11:00.281Z,53.08
2018-08-18T01:12:00.735Z,53.05
2018-08-18T01:13:01.167Z,52.98
2018-08-18T01:14:01.738Z,52.90
2018-08-18T01:15:02.124Z,52.86
2018-08-18T01:16:02.553Z,52.80
2018-08-18T01:17:03.029Z,52.78
2018-08-18T01:18:03.505Z,52.83
2018-08-18T01:19:03.976Z,52.82
2018-08-18T01:20:04.451Z,52.81
2018-08-18T01:21:04.925Z,52.84
2018-08-18T01:22:05.401Z,52.91
2018-08-18T01:23:05.876Z,52.96
2018-08-18T01:24:06.353Z,53.02
2018-08-18T01:25:06.831Z,53.08
2018-08-18T01:26:07.306Z,53.19
2018-08-18T01:27:07.833Z,53.22
2018-08-18T01:28:08.252Z,53.27
2018-08-18T01:29:08.729Z,53.33
2018-08-18T01:30:09.204Z,53.38
2018-08-18T01:31:09.677Z,53.45
2018-08-18T01:32:10.152Z,53.53
2018-08-18T01:33:10.629Z,53.59
2018-08-18T01:34:11.103Z,53.65
2018-08-18T01:35:11.578Z,53.71
2018-08-18T01:36:12.052Z,53.75
2018-08-18T01:37:12.528Z,53.79
2018-08-18T01:38:13.002Z,53.82
2018-08-18T01:39:13.476Z,53.83
2018-08-18T01:40:13.951Z,53.88
2018-08-18T01:41:14.426Z,53.90
2018-08-18T01:42:14.900Z,53.91
2018-08-18T01:43:15.373Z,53.91
2018-08-18T01:44:15.848Z,53.93
2018-08-18T01:45:16.322Z,53.94
2018-08-18T01:46:16.798Z,53.94
2018-08-18T01:47:17.270Z,53.92
2018-08-18T01:48:17.743Z,53.90
2018-08-18T01:49:18.216Z,53.88
2018-08-18T01:50:18.688Z,53.86
2018-08-18T01:51:19.162Z,53.85
2018-08-18T01:52:19.635Z,53.82
2018-08-18T01:53:20.109Z,53.82
2018-08-18T01:54:20.583Z,53.77
2018-08-18T01:55:21.053Z,53.74
2018-08-18T01:56:21.527Z,53.71
2018-08-18T01:57:21.999Z,53.68
2018-08-18T01:58:22.471Z,53.64
2018-08-18T01:59:22.943Z,53.58
2018-08-18T02:00:23.415Z,53.54
2018-08-18T02:01:23.890Z,53.49
2018-08-18T02:02:24.362Z,53.43
2018-08-18T02:03:24.831Z,53.38
2018-08-18T02:04:25.303Z,53.34
2018-08-18T02:05:25.779Z,53.29
2018-08-18T02:06:26.249Z,53.23
2018-08-18T02:07:26.719Z,53.17
2018-08-18T02:08:27.191Z,53.12
2018-08-18T02:09:27.664Z,53.10
2018-08-18T02:10:28.133Z,53.10
2018-08-18T02:11:28.605Z,53.19
2018-08-18T02:12:29.079Z,53.31
2018-08-18T02:13:29.547Z,53.44
2018-08-18T02:14:30.022Z,53.57
2018-08-18T02:15:30.493Z,53.71
2018-08-18T02:16:30.964Z,53.83
2018-08-18T02:17:31.433Z,53.92
2018-08-18T02:18:31.906Z,54.00
2018-08-18T02:19:32.377Z,54.02
2018-08-18T02:20:32.848Z,54.02
2018-08-18T02:21:33.318Z,54.05
2018-08-18T02:22:33.790Z,54.03
2018-08-18T02:23:34.262Z,53.98
2018-08-18T02:24:34.735Z,53.92
2018-08-18T02:25:35.205Z,53.85
2018-08-18T02:26:35.678Z,53.79
2018-08-18T02:27:36.149Z,53.66
2018-08-18T02:28:36.621Z,53.59
2018-08-18T02:29:37.093Z,53.51
2018-08-18T02:30:37.565Z,53.44
2018-08-18T02:31:38.039Z,53.43
2018-08-18T02:32:38.511Z,53.40
2018-08-18T02:33:39.035Z,53.38
2018-08-18T02:34:39.457Z,53.36
2018-08-18T02:35:39.930Z,53.33
2018-08-18T02:36:40.405Z,53.29
2018-08-18T02:37:40.879Z,53.25
2018-08-18T02:38:41.356Z,53.20
2018-08-18T02:39:41.828Z,53.14
2018-08-18T02:40:42.300Z,53.14
2018-08-18T02:41:42.777Z,53.17
2018-08-18T02:42:43.251Z,53.19
2018-08-18T02:43:43.733Z,53.23
2018-08-18T02:44:44.200Z,53.27
2018-08-18T02:45:44.675Z,53.31
2018-08-18T02:46:45.150Z,53.40
2018-08-18T02:47:45.628Z,53.46
2018-08-18T02:48:46.164Z,53.53
2018-08-18T02:49:46.580Z,53.59
2018-08-18T02:50:47.051Z,53.67
2018-08-18T02:51:47.526Z,53.72
2018-08-18T02:52:48.003Z,53.78
2018-08-18T02:53:48.477Z,53.84
2018-08-18T02:54:48.951Z,53.92
2018-08-18T02:55:49.424Z,54.02
2018-08-18T02:56:49.902Z,54.10
2018-08-18T02:57:50.377Z,54.16
2018-08-18T02:58:50.850Z,54.25
2018-08-18T02:59:51.323Z,54.30
2018-08-18T03:00:51.801Z,54.34
2018-08-18T03:01:52.274Z,54.37
2018-08-18T03:02:52.747Z,54.41
2018-08-18T03:03:53.224Z,54.42
2018-08-18T03:04:53.700Z,54.44
2018-08-18T03:05:54.170Z,54.45
2018-08-18T03:06:54.644Z,54.49
2018-08-18T03:07:55.176Z,54.48
2018-08-18T03:08:55.590Z,54.49
2018-08-18T03:09:56.064Z,54.48
2018-08-18T03:10:56.539Z,54.48
2018-08-18T03:11:57.012Z,54.47
2018-08-18T03:12:57.484Z,54.47
2018-08-18T03:13:57.956Z,54.45
2018-08-18T03:14:58.429Z,54.43
2018-08-18T03:15:58.904Z,54.42
2018-08-18T03:16:59.377Z,54.40
2018-08-18T03:17:59.847Z,54.38
2018-08-18T03:19:00.321Z,54.36
2018-08-18T03:20:00.792Z,54.33
2018-08-18T03:21:01.265Z,54.32
2018-08-18T03:22:01.736Z,54.28
2018-08-18T03:23:02.211Z,54.24
2018-08-18T03:24:02.680Z,54.19
2018-08-18T03:25:03.155Z,54.14
2018-08-18T03:26:03.624Z,54.11
2018-08-18T03:27:04.096Z,54.08
2018-08-18T03:28:04.566Z,54.13
2018-08-18T03:29:05.096Z,54.25
2018-08-18T03:30:05.510Z,54.38
2018-08-18T03:31:05.987Z,54.49
2018-08-18T03:32:06.451Z,54.62
2018-08-18T03:33:06.922Z,54.70
2018-08-18T03:34:07.394Z,54.75
2018-08-18T03:35:07.866Z,54.80
2018-08-18T03:36:08.335Z,54.82
2018-08-18T03:37:08.806Z,54.81
2018-08-18T03:38:09.278Z,54.81
2018-08-18T03:39:09.748Z,54.79
2018-08-18T03:40:10.219Z,54.77
2018-08-18T03:41:10.692Z,54.71
2018-08-18T03:42:11.162Z,54.64
2018-08-18T03:43:11.635Z,54.54
2018-08-18T03:44:12.106Z,54.45
2018-08-18T03:45:12.577Z,54.34
2018-08-18T03:46:13.049Z,54.27
2018-08-18T03:47:13.525Z,54.22
2018-08-18T03:48:13.993Z,54.18
2018-08-18T03:49:14.473Z,54.13
2018-08-18T03:50:14.937Z,54.07
2018-08-18T03:51:15.412Z,54.05
2018-08-18T03:52:15.917Z,54.04
2018-08-18T03:53:16.357Z,54.02
2018-08-18T03:54:16.848Z,54.00
2018-08-18T03:55:17.308Z,54.01
2018-08-18T03:56:17.780Z,54.01
2018-08-18T03:57:18.251Z,53.95
2018-08-18T03:58:18.724Z,53.89
2018-08-18T03:59:19.202Z,53.88
2018-08-18T04:00:19.674Z,53.88
2018-08-18T04:01:20.178Z,53.90
2018-08-18T04:02:20.622Z,53.96
2018-08-18T04:03:21.097Z,53.97
2018-08-18T04:04:21.571Z,54.03
2018-08-18T04:05:22.048Z,54.07
2018-08-18T04:06:22.524Z,54.14
2018-08-18T04:07:22.997Z,54.22
2018-08-18T04:08:23.472Z,54.27
2018-08-18T04:09:24.040Z,54.35
2018-08-18T04:10:24.424Z,54.43
2018-08-18T04:11:24.899Z,54.50
2018-08-18T04:12:25.371Z,54.55
2018-08-18T04:13:25.847Z,54.64
2018-08-18T04:14:26.320Z,54.69
2018-08-18T04:15:26.794Z,54.77
2018-08-18T04:16:27.270Z,54.83
2018-08-18T04:17:27.746Z,54.92
2018-08-18T04:18:28.217Z,55.00
2018-08-18T04:19:28.693Z,55.05
2018-08-18T04:20:29.167Z,55.10
2018-08-18T04:21:29.640Z,55.13
2018-08-18T04:22:30.115Z,55.15
2018-08-18T04:23:30.588Z,55.17
2018-08-18T04:24:31.061Z,55.18
2018-08-18T04:25:31.534Z,55.19
2018-08-18T04:26:32.209Z,55.20
2018-08-18T04:27:32.483Z,55.21
2018-08-18T04:28:32.954Z,55.19
2018-08-18T04:29:33.432Z,55.18
2018-08-18T04:30:33.899Z,55.18
2018-08-18T04:31:34.372Z,55.16
2018-08-18T04:32:34.844Z,55.13
2018-08-18T04:33:35.317Z,55.08
2018-08-18T04:34:35.789Z,55.06
2018-08-18T04:35:36.265Z,55.04
2018-08-18T04:36:36.734Z,55.00
2018-08-18T04:37:37.204Z,54.99
2018-08-18T04:38:38.017Z,54.94
2018-08-18T04:39:38.148Z,54.90
2018-08-18T04:40:38.621Z,54.96
2018-08-18T04:41:39.094Z,55.07
2018-08-18T04:42:39.565Z,55.17
2018-08-18T04:43:40.071Z,55.28
2018-08-18T04:44:40.505Z,55.32
2018-08-18T04:45:40.978Z,55.36
2018-08-18T04:46:41.451Z,55.40
2018-08-18T04:47:41.920Z,55.40
2018-08-18T04:48:42.392Z,55.40
2018-08-18T04:49:42.862Z,55.35
2018-08-18T04:50:43.334Z,55.28
2018-08-18T04:51:43.804Z,55.26
2018-08-18T04:52:44.277Z,55.20
2018-08-18T04:53:44.747Z,55.10
2018-08-18T04:54:45.220Z,55.02
2018-08-18T04:55:45.690Z,54.92
2018-08-18T04:56:46.192Z,54.80
2018-08-18T04:57:46.634Z,54.69
2018-08-18T04:58:47.104Z,54.60
2018-08-18T04:59:47.582Z,54.51
2018-08-18T05:00:48.051Z,54.41
2018-08-18T05:01:48.522Z,54.37
2018-08-18T05:02:48.993Z,54.29
2018-08-18T05:03:49.465Z,54.24
2018-08-18T05:04:49.938Z,54.21
2018-08-18T05:05:50.412Z,54.20
2018-08-18T05:06:50.883Z,54.16
2018-08-18T05:07:51.358Z,54.15
2018-08-18T05:08:51.877Z,54.15
2018-08-18T05:09:52.308Z,54.13
2018-08-18T05:10:52.779Z,54.04
2018-08-18T05:11:53.253Z,54.01
2018-08-18T05:12:53.727Z,53.98
2018-08-18T05:13:54.205Z,53.92
2018-08-18T05:14:54.676Z,53.92
2018-08-18T05:15:55.151Z,53.94
2018-08-18T05:16:55.628Z,53.94
2018-08-18T05:17:56.098Z,53.99
2018-08-18T05:18:56.650Z,54.00
2018-08-18T05:19:57.050Z,54.05
2018-08-18T05:20:57.522Z,54.09
2018-08-18T05:21:57.997Z,54.14
2018-08-18T05:22:58.476Z,54.20
2018-08-18T05:23:58.951Z,54.24
2018-08-18T05:24:59.423Z,54.25
2018-08-18T05:25:59.897Z,54.28
2018-08-18T05:27:00.373Z,54.33
2018-08-18T05:28:00.848Z,54.36
2018-08-18T05:29:01.322Z,54.38
2018-08-18T05:30:01.796Z,54.42
2018-08-18T05:31:02.271Z,54.46
2018-08-18T05:32:02.745Z,54.53
2018-08-18T05:33:03.219Z,54.55
2018-08-18T05:34:03.694Z,54.60
2018-08-18T05:35:04.167Z,54.61
2018-08-18T05:36:04.641Z,54.62
2018-08-18T05:37:05.114Z,54.61
2018-08-18T05:38:05.592Z,54.60
2018-08-18T05:39:06.060Z,54.58
2018-08-18T05:40:06.534Z,54.57
2018-08-18T05:41:07.007Z,54.55
2018-08-18T05:42:07.484Z,54.51
2018-08-18T05:43:07.955Z,54.52
2018-08-18T05:44:08.425Z,54.51
2018-08-18T05:45:08.898Z,54.50
2018-08-18T05:46:09.371Z,54.46
2018-08-18T05:47:09.844Z,54.44
2018-08-18T05:48:10.319Z,54.40
2018-08-18T05:49:10.787Z,54.35
2018-08-18T05:50:11.258Z,54.32
2018-08-18T05:51:11.732Z,54.27
2018-08-18T05:52:12.203Z,54.23
2018-08-18T05:53:12.676Z,54.16
2018-08-18T05:54:13.148Z,54.11
2018-08-18T05:55:13.622Z,54.13
2018-08-18T05:56:14.090Z,54.21
2018-08-18T05:57:14.562Z,54.29
2018-08-18T05:58:15.037Z,54.33
2018-08-18T05:59:15.504Z,54.35
2018-08-18T06:00:15.977Z,54.36
2018-08-18T06:01:16.445Z,54.36
2018-08-18T06:02:16.917Z,54.33
2018-08-18T06:03:17.392Z,54.25
2018-08-18T06:04:17.861Z,54.17
2018-08-18T06:05:18.333Z,54.12
2018-08-18T06:06:18.804Z,54.07
2018-08-18T06:07:19.275Z,54.00
2018-08-18T06:08:19.748Z,53.88
2018-08-18T06:09:20.221Z,53.74
2018-08-18T06:10:20.690Z,53.60
2018-08-18T06:11:21.162Z,53.48
2018-08-18T06:12:21.633Z,53.33
2018-08-18T06:13:22.107Z,53.21
2018-08-18T06:14:22.577Z,53.10
2018-08-18T06:15:23.050Z,52.99
2018-08-18T06:16:23.523Z,52.88
2018-08-18T06:17:23.997Z,52.79
2018-08-18T06:18:24.469Z,52.71
2018-08-18T06:19:24.943Z,52.66
2018-08-18T06:20:25.418Z,52.58
2018-08-18T06:21:25.890Z,52.51
2018-08-18T06:22:26.365Z,52.42
2018-08-18T06:23:26.838Z,52.29
2018-08-18T06:24:27.314Z,52.18
2018-08-18T06:25:27.786Z,52.13
2018-08-18T06:26:28.264Z,52.05
2018-08-18T06:27:28.739Z,52.02
2018-08-18T06:28:29.212Z,52.01
2018-08-18T06:29:29.689Z,52.01
2018-08-18T06:30:30.163Z,52.04
2018-08-18T06:31:30.639Z,52.09
2018-08-18T06:32:31.115Z,52.12
2018-08-18T06:33:31.590Z,52.14
2018-08-18T06:34:32.116Z,52.15
2018-08-18T06:35:32.544Z,52.17
2018-08-18T06:36:33.018Z,52.17
2018-08-18T06:37:33.495Z,52.18
2018-08-18T06:38:33.968Z,52.17
2018-08-18T06:39:34.445Z,52.20
2018-08-18T06:40:34.919Z,52.19
2018-08-18T06:41:35.421Z,52.21
2018-08-18T06:42:35.869Z,52.22
2018-08-18T06:43:36.345Z,52.27
2018-08-18T06:44:36.822Z,52.29
2018-08-18T06:45:37.296Z,52.31
2018-08-18T06:46:37.771Z,52.33
2018-08-18T06:47:38.246Z,52.33
2018-08-18T06:48:38.721Z,52.36
2018-08-18T06:49:39.196Z,52.33
2018-08-18T06:50:39.670Z,52.31
2018-08-18T06:51:40.145Z,52.28
2018-08-18T06:52:40.621Z,52.23
2018-08-18T06:53:41.095Z,52.15
2018-08-18T06:54:41.625Z,52.08
2018-08-18T06:55:42.044Z,52.02
2018-08-18T06:56:42.519Z,51.97
2018-08-18T06:57:42.995Z,51.90
2018-08-18T06:58:43.469Z,51.86
2018-08-18T06:59:43.943Z,51.80
2018-08-18T07:00:44.417Z,51.70
2018-08-18T07:01:44.889Z,51.65
2018-08-18T07:02:45.395Z,51.57
2018-08-18T07:03:45.838Z,51.55
2018-08-18T07:04:46.312Z,51.48
2018-08-18T07:05:46.860Z,51.47
2018-08-18T07:06:47.273Z,51.43
2018-08-18T07:07:47.735Z,51.39
2018-08-18T07:08:48.411Z,51.32
2018-08-18T07:09:48.680Z,51.25
2018-08-18T07:10:49.155Z,51.20
2018-08-18T07:11:49.629Z,51.14
2018-08-18T07:12:50.103Z,51.04
2018-08-18T07:13:50.575Z,50.96
2018-08-18T07:14:51.051Z,50.85
2018-08-18T07:15:51.526Z,50.77
2018-08-18T07:16:51.997Z,50.69
2018-08-18T07:17:52.470Z,50.64
2018-08-18T07:18:52.946Z,50.56
2018-08-18T07:19:53.418Z,50.49
2018-08-18T07:20:53.895Z,50.44
2018-08-18T07:21:54.368Z,50.37
2018-08-18T07:22:54.842Z,50.32
2018-08-18T07:23:55.315Z,50.26
2018-08-18T07:24:55.788Z,50.26
2018-08-18T07:25:56.262Z,50.24
2018-08-18T07:26:56.735Z,50.19
2018-08-18T07:27:57.210Z,50.15
2018-08-18T07:28:57.795Z,50.10
2018-08-18T07:29:58.164Z,49.98
2018-08-18T07:30:58.636Z,49.79
2018-08-18T07:31:59.113Z,49.53
2018-08-18T07:32:59.589Z,49.19
2018-08-18T07:34:00.063Z,48.80
2018-08-18T07:35:00.542Z,48.31
2018-08-18T07:36:01.021Z,47.86
2018-08-18T07:37:01.511Z,47.35
2018-08-18T07:38:01.973Z,47.00
2018-08-18T07:39:02.467Z,46.59
2018-08-18T07:40:02.930Z,46.12
2018-08-18T07:41:03.407Z,45.68
2018-08-18T07:42:03.885Z,45.26
2018-08-18T07:43:04.367Z,44.86
2018-08-18T07:44:04.844Z,44.48
2018-08-18T07:45:05.327Z,44.09
2018-08-18T07:46:05.804Z,43.75
2018-08-18T07:47:06.284Z,43.50
2018-08-18T07:48:06.858Z,43.22
2018-08-18T07:49:07.245Z,42.96
2018-08-18T07:50:07.725Z,42.71
2018-08-18T07:51:08.206Z,42.47
2018-08-18T07:52:08.694Z,42.23
2018-08-18T07:53:09.238Z,42.00
2018-08-18T07:54:09.653Z,41.84
2018-08-18T07:55:10.135Z,41.69
2018-08-18T07:56:10.670Z,41.53
2018-08-18T07:57:11.101Z,41.38
2018-08-18T07:58:11.583Z,41.24
2018-08-18T07:59:12.069Z,41.11
2018-08-18T08:00:12.552Z,41.04
2018-08-18T08:01:13.036Z,40.97
2018-08-18T08:02:13.517Z,40.86
2018-08-18T08:03:14.005Z,40.74
2018-08-18T08:04:14.490Z,40.59
2018-08-18T08:05:14.975Z,40.41
2018-08-18T08:06:15.606Z,40.31
2018-08-18T08:07:15.942Z,40.14
2018-08-18T08:08:16.428Z,40.00
2018-08-18T08:09:16.913Z,39.90
2018-08-18T08:10:17.397Z,39.91
2018-08-18T08:11:17.884Z,39.75
2018-08-18T08:12:18.370Z,39.83
2018-08-18T08:13:18.856Z,39.82
2018-08-18T08:14:19.342Z,40.12
2018-08-18T08:15:19.827Z,40.56
2018-08-18T08:16:20.315Z,40.71
2018-08-18T08:17:20.800Z,40.65
2018-08-18T08:18:21.290Z,40.58
2018-08-18T08:19:21.772Z,40.50
2018-08-18T08:20:22.257Z,40.34
2018-08-18T08:21:22.745Z,40.22
2018-08-18T08:22:23.232Z,40.27
2018-08-18T08:23:23.920Z,40.34
2018-08-18T08:24:24.205Z,40.30
2018-08-18T08:25:24.692Z,40.22
2018-08-18T08:26:25.179Z,40.08
2018-08-18T08:27:25.667Z,39.93
2018-08-18T08:28:26.156Z,39.84
2018-08-18T08:29:26.646Z,39.77
2018-08-18T08:30:27.132Z,39.69
2018-08-18T08:31:27.619Z,39.59
2018-08-18T08:32:28.109Z,39.53
2018-08-18T08:33:28.598Z,39.44
2018-08-18T08:34:29.089Z,39.31
2018-08-18T08:35:29.578Z,39.18
2018-08-18T08:36:30.065Z,39.06
2018-08-18T08:37:30.554Z,38.89
2018-08-18T08:38:31.044Z,38.87
2018-08-18T08:39:31.531Z,38.82
2018-08-18T08:40:32.024Z,38.79
2018-08-18T08:41:32.513Z,38.95
2018-08-18T08:42:33.000Z,39.02
2018-08-18T08:43:33.493Z,38.88
2018-08-18T08:44:33.980Z,38.99
2018-08-18T08:45:34.469Z,39.37
2018-08-18T08:46:34.956Z,39.57
2018-08-18T08:47:35.445Z,39.75
2018-08-18T08:48:35.938Z,39.82
2018-08-18T08:49:36.425Z,39.76
2018-08-18T08:50:36.914Z,39.63
2018-08-18T08:51:37.404Z,39.51
2018-08-18T08:52:37.892Z,39.42
2018-08-18T08:53:38.380Z,39.23
2018-08-18T08:54:38.868Z,39.25
2018-08-18T08:55:39.358Z,39.21
2018-08-18T08:56:39.844Z,39.11
2018-08-18T08:57:40.339Z,39.09
2018-08-18T08:58:40.826Z,39.28
2018-08-18T08:59:41.308Z,39.51
2018-08-18T09:00:41.796Z,39.71
2018-08-18T09:01:42.281Z,40.03
2018-08-18T09:02:42.766Z,40.17
2018-08-18T09:03:43.253Z,40.23
2018-08-18T09:04:43.941Z,40.46
2018-08-18T09:05:44.225Z,40.70
2018-08-18T09:06:44.709Z,40.91
2018-08-18T09:07:45.192Z,41.20
2018-08-18T09:08:45.723Z,41.40
2018-08-18T09:09:46.161Z,41.66
2018-08-18T09:10:46.697Z,41.88
2018-08-18T09:11:47.126Z,42.12
2018-08-18T09:12:47.610Z,42.33
2018-08-18T09:13:48.093Z,42.54
2018-08-18T09:14:48.574Z,42.74
2018-08-18T09:15:49.260Z,42.91
2018-08-18T09:16:49.542Z,43.08
2018-08-18T09:17:50.022Z,43.21
2018-08-18T09:18:50.502Z,43.39
2018-08-18T09:19:50.985Z,43.57
2018-08-18T09:20:51.465Z,43.72
2018-08-18T09:21:51.947Z,43.87
2018-08-18T09:22:52.428Z,44.02
2018-08-18T09:23:52.909Z,44.17
2018-08-18T09:24:53.387Z,44.28
2018-08-18T09:25:53.919Z,44.42
2018-08-18T09:26:54.350Z,44.52
2018-08-18T09:27:54.830Z,44.64
2018-08-18T09:28:55.308Z,44.73
2018-08-18T09:29:55.790Z,44.81
2018-08-18T09:30:56.268Z,44.90
2018-08-18T09:31:56.749Z,44.95
2018-08-18T09:32:57.226Z,45.02
2018-08-18T09:33:57.707Z,45.08
2018-08-18T09:34:58.183Z,45.13
2018-08-18T09:35:58.664Z,45.18
2018-08-18T09:36:59.145Z,45.21
2018-08-18T09:37:59.621Z,45.23
2018-08-18T09:39:00.101Z,45.26
2018-08-18T09:40:00.578Z,45.30
2018-08-18T09:41:01.057Z,45.33
2018-08-18T09:42:01.535Z,45.36
2018-08-18T09:43:02.012Z,45.37
2018-08-18T09:44:02.490Z,45.41
2018-08-18T09:45:02.968Z,45.44
2018-08-18T09:46:03.447Z,45.47
2018-08-18T09:47:03.923Z,45.48
2018-08-18T09:48:04.401Z,45.50
2018-08-18T09:49:04.879Z,45.52
2018-08-18T09:50:05.356Z,45.52
2018-08-18T09:51:05.833Z,45.53
2018-08-18T09:52:06.311Z,45.53
2018-08-18T09:53:06.790Z,45.54
2018-08-18T09:54:07.271Z,45.54
2018-08-18T09:55:07.745Z,45.53
2018-08-18T09:56:08.222Z,45.52
2018-08-18T09:57:08.699Z,45.50
2018-08-18T09:58:09.176Z,45.50
2018-08-18T09:59:09.657Z,45.50
2018-08-18T10:00:10.130Z,45.50
2018-08-18T10:01:10.612Z,45.51
2018-08-18T10:02:11.086Z,45.51
2018-08-18T10:03:11.559Z,45.49
2018-08-18T10:04:12.036Z,45.51
2018-08-18T10:05:12.514Z,45.50
2018-08-18T10:06:12.995Z,45.50
2018-08-18T10:07:13.468Z,45.52
2018-08-18T10:08:13.947Z,45.52
2018-08-18T10:09:14.423Z,45.52
2018-08-18T10:10:14.898Z,45.51
2018-08-18T10:11:15.374Z,45.51
2018-08-18T10:12:15.851Z,45.50
2018-08-18T10:13:16.326Z,45.50
2018-08-18T10:14:16.802Z,45.47
2018-08-18T10:15:17.294Z,45.46
2018-08-18T10:16:17.755Z,45.46
2018-08-18T10:17:18.231Z,45.48
2018-08-18T10:18:18.710Z,45.45
2018-08-18T10:19:19.183Z,45.45
2018-08-18T10:20:19.662Z,45.46
2018-08-18T10:21:20.137Z,45.44
2018-08-18T10:22:20.612Z,45.42
2018-08-18T10:23:21.089Z,45.41
2018-08-18T10:24:21.565Z,45.39
2018-08-18T10:25:22.041Z,45.39
2018-08-18T10:26:22.516Z,45.37
2018-08-18T10:27:23.026Z,45.37
2018-08-18T10:28:23.468Z,45.35
2018-08-18T10:29:23.943Z,45.33
2018-08-18T10:30:24.421Z,45.31
2018-08-18T10:31:24.895Z,45.31
2018-08-18T10:32:25.372Z,45.26
2018-08-18T10:33:25.905Z,45.22
2018-08-18T10:34:26.324Z,45.20
2018-08-18T10:35:26.801Z,45.19
2018-08-18T10:36:27.276Z,45.18
2018-08-18T10:37:27.751Z,45.15
2018-08-18T10:38:28.228Z,45.13
2018-08-18T10:39:28.704Z,45.12
2018-08-18T10:40:29.180Z,45.13
2018-08-18T10:41:29.655Z,45.13
2018-08-18T10:42:30.132Z,45.11
2018-08-18T10:43:30.609Z,45.09
2018-08-18T10:44:31.083Z,44.99
2018-08-18T10:45:31.558Z,44.86
2018-08-18T10:46:32.037Z,44.72
2018-08-18T10:47:32.509Z,44.67
2018-08-18T10:48:32.985Z,44.65
2018-08-18T10:49:33.460Z,44.67
2018-08-18T10:50:33.937Z,44.63
2018-08-18T10:51:34.451Z,44.59
2018-08-18T10:52:34.889Z,44.58
2018-08-18T10:53:35.364Z,44.54
2018-08-18T10:54:35.839Z,44.54
2018-08-18T10:55:36.518Z,44.51
2018-08-18T10:56:36.796Z,44.52
2018-08-18T10:57:37.269Z,44.56
2018-08-18T10:58:37.846Z,44.57
2018-08-18T10:59:38.220Z,44.56
2018-08-18T11:00:38.697Z,44.54
2018-08-18T11:01:39.172Z,44.54
2018-08-18T11:02:39.646Z,44.54
2018-08-18T11:03:40.124Z,44.55
2018-08-18T11:04:40.600Z,44.55
2018-08-18T11:05:41.077Z,44.56
2018-08-18T11:06:41.555Z,44.58
2018-08-18T11:07:42.028Z,44.61
2018-08-18T11:08:42.504Z,44.61
2018-08-18T11:09:42.977Z,44.59
2018-08-18T11:10:43.455Z,44.56
2018-08-18T11:11:43.932Z,44.52
2018-08-18T11:12:44.406Z,44.49
2018-08-18T11:13:44.884Z,44.47
2018-08-18T11:14:45.359Z,44.47
2018-08-18T11:15:45.840Z,44.45
2018-08-18T11:16:46.334Z,44.44
2018-08-18T11:17:46.787Z,44.44
2018-08-18T11:18:47.261Z,44.42
2018-08-18T11:19:47.737Z,44.44
2018-08-18T11:20:48.214Z,44.44
2018-08-18T11:21:48.714Z,44.45
2018-08-18T11:22:49.166Z,44.45
2018-08-18T11:23:49.642Z,44.44
2018-08-18T11:24:50.117Z,44.45
2018-08-18T11:25:50.596Z,44.45
2018-08-18T11:26:51.070Z,44.46
2018-08-18T11:27:51.544Z,44.47
2018-08-18T11:28:52.145Z,44.46
2018-08-18T11:29:52.497Z,44.46
2018-08-18T11:30:52.974Z,44.44
2018-08-18T11:31:53.449Z,44.44
2018-08-18T11:32:53.926Z,44.44
2018-08-18T11:33:54.400Z,44.45
2018-08-18T11:34:54.877Z,44.44
2018-08-18T11:35:55.353Z,44.43
2018-08-18T11:36:56.030Z,44.43
2018-08-18T11:37:56.307Z,44.44
2018-08-18T11:38:56.781Z,44.45
2018-08-18T11:39:57.257Z,44.42
2018-08-18T11:40:57.731Z,44.48
2018-08-18T11:41:58.210Z,44.48
2018-08-18T11:42:58.685Z,44.48
2018-08-18T11:43:59.159Z,44.50
2018-08-18T11:44:59.636Z,44.53
2018-08-18T11:46:00.113Z,44.51
2018-08-18T11:47:00.590Z,44.53
2018-08-18T11:48:01.067Z,44.54
2018-08-18T11:49:01.541Z,44.54
2018-08-18T11:50:02.021Z,44.54
2018-08-18T11:51:02.493Z,44.55
2018-08-18T11:52:02.969Z,44.55
2018-08-18T11:53:03.447Z,44.59
2018-08-18T11:54:03.921Z,44.61
2018-08-18T11:55:04.397Z,44.64
2018-08-18T11:56:04.881Z,44.69
2018-08-18T11:57:05.349Z,44.71
2018-08-18T11:58:05.826Z,44.74
2018-08-18T11:59:06.305Z,44.78
2018-08-18T12:00:06.778Z,44.82
2018-08-18T12:01:07.340Z,44.84
2018-08-18T12:02:07.816Z,44.86
2018-08-18T12:03:08.206Z,44.88
2018-08-18T12:04:08.679Z,44.90
2018-08-18T12:05:09.165Z,44.91
2018-08-18T12:06:09.637Z,44.91
2018-08-18T12:07:10.108Z,44.92
2018-08-18T12:08:10.584Z,44.93
2018-08-18T12:09:11.061Z,44.96
2018-08-18T12:10:11.536Z,44.98
2018-08-18T12:11:12.014Z,45.03
2018-08-18T12:12:12.490Z,45.07
2018-08-18T12:13:12.964Z,45.09
2018-08-18T12:14:13.441Z,45.11
2018-08-18T12:15:13.917Z,45.13
2018-08-18T12:16:14.394Z,45.16
2018-08-18T12:17:14.870Z,45.20
2018-08-18T12:18:15.345Z,45.23
2018-08-18T12:19:15.820Z,45.26
2018-08-18T12:20:16.296Z,45.29
2018-08-18T12:21:16.771Z,45.33
2018-08-18T12:22:17.252Z,45.38
2018-08-18T12:23:17.725Z,45.41
2018-08-18T12:24:18.203Z,45.42
2018-08-18T12:25:18.675Z,45.43
2018-08-18T12:26:19.152Z,45.45
2018-08-18T12:27:19.627Z,45.47
2018-08-18T12:28:20.103Z,45.43
2018-08-18T12:29:20.648Z,45.49
2018-08-18T12:30:21.056Z,45.50
2018-08-18T12:31:21.532Z,45.52
2018-08-18T12:32:22.006Z,45.53
2018-08-18T12:33:22.483Z,45.54
2018-08-18T12:34:22.958Z,45.55
2018-08-18T12:35:23.436Z,45.57
2018-08-18T12:36:23.928Z,45.59
2018-08-18T12:37:24.424Z,45.60
2018-08-18T12:38:24.862Z,45.60
2018-08-18T12:39:25.338Z,45.59
2018-08-18T12:40:25.815Z,45.56
2018-08-18T12:41:26.288Z,45.46
2018-08-18T12:42:26.765Z,45.49
2018-08-18T12:43:27.291Z,45.46
2018-08-18T12:44:27.716Z,45.44
2018-08-18T12:45:28.193Z,45.43
2018-08-18T12:46:28.673Z,45.42
2018-08-18T12:47:29.146Z,45.42
2018-08-18T12:48:29.622Z,45.43
2018-08-18T12:49:30.148Z,45.44
2018-08-18T12:50:30.574Z,45.45
2018-08-18T12:51:31.049Z,45.46
2018-08-18T12:52:31.525Z,45.48
2018-08-18T12:53:32.004Z,45.50
2018-08-18T12:54:32.476Z,45.53
2018-08-18T12:55:32.953Z,45.54
2018-08-18T12:56:33.484Z,45.55
2018-08-18T12:57:33.903Z,45.57
2018-08-18T12:58:34.586Z,45.60